sensor_id;sensor_type;location;lat;lon;timestamp;P1;durP1;ratioP1;P2;durP2;ratioP2
43807;SDS011;29438;50.664;10.098;2023-11-19T00:01:35;3.40;;;1.58;;
43807;SDS011;29438;50.664;10.098;2023-11-19T00:04:00;2.72;;;1.38;;
43807;SDS011;29438;50.664;10.098;2023-11-19T00:06:26;3.17;;;1.50;;
43807;SDS011;29438;50.664;10.098;2023-11-19T00:08:52;3.22;;;1.50;;
43807;SDS011;29438;50.664;10.098;2023-11-19T00:11:18;3.30;;;1.58;;
43807;SDS011;29438;50.664;10.098;2023-11-19T00:13:43;4.22;;;1.95;;
43807;SDS011;29438;50.664;10.098;2023-11-19T00:16:09;3.33;;;1.67;;
43807;SDS011;29438;50.664;10.098;2023-11-19T00:18:35;2.67;;;1.50;;
43807;SDS011;29438;50.664;10.098;2023-11-19T00:21:04;3.30;;;1.60;;
43807;SDS011;29438;50.664;10.098;2023-11-19T00:23:30;3.50;;;1.40;;
43807;SDS011;29438;50.664;10.098;2023-11-19T00:25:55;2.72;;;1.20;;
43807;SDS011;29438;50.664;10.098;2023-11-19T00:28:21;2.58;;;1.08;;
43807;SDS011;29438;50.664;10.098;2023-11-19T00:30:47;2.65;;;1.13;;
43807;SDS011;29438;50.664;10.098;2023-11-19T00:33:12;3.28;;;1.50;;
43807;SDS011;29438;50.664;10.098;2023-11-19T00:35:38;2.75;;;1.20;;
43807;SDS011;29438;50.664;10.098;2023-11-19T00:38:03;2.78;;;1.25;;
43807;SDS011;29438;50.664;10.098;2023-11-19T00:40:29;2.25;;;1.02;;
43807;SDS011;29438;50.664;10.098;2023-11-19T00:42:54;2.78;;;1.10;;
43807;SDS011;29438;50.664;10.098;2023-11-19T00:45:20;1.85;;;0.90;;
43807;SDS011;29438;50.664;10.098;2023-11-19T00:47:45;3.10;;;1.48;;
43807;SDS011;29438;50.664;10.098;2023-11-19T00:50:11;2.60;;;1.10;;
43807;SDS011;29438;50.664;10.098;2023-11-19T00:52:37;2.13;;;0.88;;
43807;SDS011;29438;50.664;10.098;2023-11-19T00:55:04;2.92;;;0.80;;
43807;SDS011;29438;50.664;10.098;2023-11-19T00:57:30;2.78;;;1.35;;
43807;SDS011;29438;50.664;10.098;2023-11-19T00:59:58;3.15;;;1.52;;
43807;SDS011;29438;50.664;10.098;2023-11-19T01:02:24;1.98;;;0.95;;
43807;SDS011;29438;50.664;10.098;2023-11-19T01:04:50;1.90;;;0.85;;
43807;SDS011;29438;50.664;10.098;2023-11-19T01:07:15;2.53;;;1.13;;
43807;SDS011;29438;50.664;10.098;2023-11-19T01:09:41;3.83;;;1.80;;
43807;SDS011;29438;50.664;10.098;2023-11-19T01:12:07;2.58;;;1.00;;
43807;SDS011;29438;50.664;10.098;2023-11-19T01:14:34;2.72;;;1.25;;
43807;SDS011;29438;50.664;10.098;2023-11-19T01:17:00;3.35;;;1.42;;
43807;SDS011;29438;50.664;10.098;2023-11-19T01:19:26;2.78;;;1.23;;
43807;SDS011;29438;50.664;10.098;2023-11-19T01:21:53;4.03;;;1.90;;
43807;SDS011;29438;50.664;10.098;2023-11-19T01:24:19;4.65;;;2.20;;
43807;SDS011;29438;50.664;10.098;2023-11-19T01:26:45;3.78;;;1.95;;
43807;SDS011;29438;50.664;10.098;2023-11-19T01:29:12;4.75;;;2.22;;
43807;SDS011;29438;50.664;10.098;2023-11-19T01:31:41;4.30;;;1.70;;
43807;SDS011;29438;50.664;10.098;2023-11-19T01:34:07;4.10;;;1.77;;
43807;SDS011;29438;50.664;10.098;2023-11-19T01:36:33;3.30;;;1.48;;
43807;SDS011;29438;50.664;10.098;2023-11-19T01:38:58;4.00;;;1.75;;
43807;SDS011;29438;50.664;10.098;2023-11-19T01:41:24;3.95;;;1.80;;
43807;SDS011;29438;50.664;10.098;2023-11-19T01:43:50;4.60;;;2.08;;
43807;SDS011;29438;50.664;10.098;2023-11-19T01:46:15;6.03;;;3.80;;
43807;SDS011;29438;50.664;10.098;2023-11-19T01:48:42;4.20;;;1.92;;
43807;SDS011;29438;50.664;10.098;2023-11-19T01:51:10;2.85;;;1.27;;
43807;SDS011;29438;50.664;10.098;2023-11-19T01:53:37;4.32;;;1.70;;
43807;SDS011;29438;50.664;10.098;2023-11-19T01:56:04;4.57;;;2.20;;
43807;SDS011;29438;50.664;10.098;2023-11-19T01:58:34;3.22;;;1.50;;
43807;SDS011;29438;50.664;10.098;2023-11-19T02:01:04;4.28;;;1.77;;
43807;SDS011;29438;50.664;10.098;2023-11-19T02:03:31;5.13;;;2.13;;
43807;SDS011;29438;50.664;10.098;2023-11-19T02:05:58;4.60;;;2.20;;
43807;SDS011;29438;50.664;10.098;2023-11-19T02:08:24;4.97;;;2.35;;
43807;SDS011;29438;50.664;10.098;2023-11-19T02:10:51;4.40;;;2.25;;
43807;SDS011;29438;50.664;10.098;2023-11-19T02:13:17;3.40;;;1.50;;
43807;SDS011;29438;50.664;10.098;2023-11-19T02:15:43;3.08;;;0.98;;
43807;SDS011;29438;50.664;10.098;2023-11-19T02:18:22;2.72;;;0.90;;
43807;SDS011;29438;50.664;10.098;2023-11-19T02:20:55;2.08;;;0.88;;
43807;SDS011;29438;50.664;10.098;2023-11-19T02:23:25;1.92;;;0.82;;
43807;SDS011;29438;50.664;10.098;2023-11-19T02:25:57;2.28;;;0.80;;
43807;SDS011;29438;50.664;10.098;2023-11-19T02:28:27;2.60;;;1.00;;
43807;SDS011;29438;50.664;10.098;2023-11-19T02:30:53;2.38;;;1.13;;
43807;SDS011;29438;50.664;10.098;2023-11-19T02:33:19;2.30;;;1.17;;
43807;SDS011;29438;50.664;10.098;2023-11-19T02:35:44;2.13;;;1.05;;
43807;SDS011;29438;50.664;10.098;2023-11-19T02:38:10;3.00;;;1.20;;
43807;SDS011;29438;50.664;10.098;2023-11-19T02:40:35;2.83;;;1.27;;
43807;SDS011;29438;50.664;10.098;2023-11-19T02:43:01;2.90;;;1.35;;
43807;SDS011;29438;50.664;10.098;2023-11-19T02:45:29;3.25;;;1.27;;
43807;SDS011;29438;50.664;10.098;2023-11-19T02:47:56;3.05;;;1.45;;
43807;SDS011;29438;50.664;10.098;2023-11-19T02:50:21;2.72;;;1.33;;
43807;SDS011;29438;50.664;10.098;2023-11-19T02:52:51;2.50;;;1.35;;
43807;SDS011;29438;50.664;10.098;2023-11-19T02:55:18;2.65;;;1.17;;
43807;SDS011;29438;50.664;10.098;2023-11-19T02:57:44;2.80;;;1.30;;
43807;SDS011;29438;50.664;10.098;2023-11-19T03:00:22;2.40;;;1.23;;
43807;SDS011;29438;50.664;10.098;2023-11-19T03:02:49;3.08;;;1.60;;
43807;SDS011;29438;50.664;10.098;2023-11-19T03:05:25;4.00;;;1.50;;
43807;SDS011;29438;50.664;10.098;2023-11-19T03:07:52;3.13;;;1.33;;
43807;SDS011;29438;50.664;10.098;2023-11-19T03:10:17;3.00;;;1.60;;
43807;SDS011;29438;50.664;10.098;2023-11-19T03:12:44;2.90;;;1.42;;
43807;SDS011;29438;50.664;10.098;2023-11-19T03:15:10;4.38;;;1.40;;
43807;SDS011;29438;50.664;10.098;2023-11-19T03:17:39;2.85;;;1.38;;
43807;SDS011;29438;50.664;10.098;2023-11-19T03:20:06;2.90;;;1.30;;
43807;SDS011;29438;50.664;10.098;2023-11-19T03:22:36;2.33;;;1.30;;
43807;SDS011;29438;50.664;10.098;2023-11-19T03:25:03;3.72;;;1.50;;
43807;SDS011;29438;50.664;10.098;2023-11-19T03:27:28;3.55;;;1.42;;
43807;SDS011;29438;50.664;10.098;2023-11-19T03:29:54;3.08;;;1.40;;
43807;SDS011;29438;50.664;10.098;2023-11-19T03:32:20;2.88;;;1.33;;
43807;SDS011;29438;50.664;10.098;2023-11-19T03:34:45;4.13;;;1.30;;
43807;SDS011;29438;50.664;10.098;2023-11-19T03:37:11;3.72;;;1.10;;
43807;SDS011;29438;50.664;10.098;2023-11-19T03:39:37;2.60;;;1.05;;
43807;SDS011;29438;50.664;10.098;2023-11-19T03:42:03;1.70;;;0.80;;
43807;SDS011;29438;50.664;10.098;2023-11-19T03:44:29;1.92;;;0.93;;
43807;SDS011;29438;50.664;10.098;2023-11-19T03:46:54;2.20;;;0.88;;
43807;SDS011;29438;50.664;10.098;2023-11-19T03:49:20;2.00;;;0.90;;
43807;SDS011;29438;50.664;10.098;2023-11-19T03:51:45;2.85;;;1.20;;
43807;SDS011;29438;50.664;10.098;2023-11-19T03:54:11;3.40;;;1.20;;
43807;SDS011;29438;50.664;10.098;2023-11-19T03:56:36;2.47;;;1.00;;
43807;SDS011;29438;50.664;10.098;2023-11-19T03:59:02;2.28;;;1.02;;
43807;SDS011;29438;50.664;10.098;2023-11-19T04:01:28;2.03;;;0.80;;
43807;SDS011;29438;50.664;10.098;2023-11-19T04:03:53;2.10;;;0.90;;
43807;SDS011;29438;50.664;10.098;2023-11-19T04:06:20;2.15;;;0.95;;
43807;SDS011;29438;50.664;10.098;2023-11-19T04:08:46;2.67;;;1.10;;
43807;SDS011;29438;50.664;10.098;2023-11-19T04:11:12;1.95;;;0.80;;
43807;SDS011;29438;50.664;10.098;2023-11-19T04:13:37;2.30;;;0.70;;
43807;SDS011;29438;50.664;10.098;2023-11-19T04:16:03;2.33;;;0.70;;
43807;SDS011;29438;50.664;10.098;2023-11-19T04:18:29;1.38;;;0.60;;
43807;SDS011;29438;50.664;10.098;2023-11-19T04:20:56;1.48;;;0.52;;
43807;SDS011;29438;50.664;10.098;2023-11-19T04:23:22;1.42;;;0.60;;
43807;SDS011;29438;50.664;10.098;2023-11-19T04:25:49;1.20;;;0.50;;
43807;SDS011;29438;50.664;10.098;2023-11-19T04:28:15;1.40;;;0.57;;
43807;SDS011;29438;50.664;10.098;2023-11-19T04:30:41;1.17;;;0.50;;
43807;SDS011;29438;50.664;10.098;2023-11-19T04:33:06;0.85;;;0.22;;
43807;SDS011;29438;50.664;10.098;2023-11-19T04:35:32;1.08;;;0.55;;
43807;SDS011;29438;50.664;10.098;2023-11-19T04:37:57;1.80;;;0.70;;
43807;SDS011;29438;50.664;10.098;2023-11-19T04:40:23;1.77;;;0.65;;
43807;SDS011;29438;50.664;10.098;2023-11-19T04:42:48;1.30;;;0.50;;
43807;SDS011;29438;50.664;10.098;2023-11-19T04:45:14;1.38;;;0.47;;
43807;SDS011;29438;50.664;10.098;2023-11-19T04:47:41;1.00;;;0.30;;
43807;SDS011;29438;50.664;10.098;2023-11-19T04:50:07;1.30;;;0.40;;
43807;SDS011;29438;50.664;10.098;2023-11-19T04:52:36;1.08;;;0.50;;
43807;SDS011;29438;50.664;10.098;2023-11-19T04:55:05;1.00;;;0.32;;
43807;SDS011;29438;50.664;10.098;2023-11-19T04:57:31;1.02;;;0.50;;
43807;SDS011;29438;50.664;10.098;2023-11-19T04:59:57;1.38;;;0.57;;
43807;SDS011;29438;50.664;10.098;2023-11-19T05:02:23;1.52;;;0.80;;
43807;SDS011;29438;50.664;10.098;2023-11-19T05:04:49;1.77;;;0.50;;
43807;SDS011;29438;50.664;10.098;2023-11-19T05:07:14;1.20;;;0.45;;
43807;SDS011;29438;50.664;10.098;2023-11-19T05:09:40;2.25;;;0.68;;
43807;SDS011;29438;50.664;10.098;2023-11-19T05:12:05;2.15;;;0.85;;
43807;SDS011;29438;50.664;10.098;2023-11-19T05:14:34;2.75;;;1.13;;
43807;SDS011;29438;50.664;10.098;2023-11-19T05:17:00;1.70;;;0.90;;
43807;SDS011;29438;50.664;10.098;2023-11-19T05:19:26;2.63;;;1.02;;
43807;SDS011;29438;50.664;10.098;2023-11-19T05:21:51;2.90;;;1.17;;
43807;SDS011;29438;50.664;10.098;2023-11-19T05:24:17;3.70;;;1.30;;
43807;SDS011;29438;50.664;10.098;2023-11-19T05:26:43;2.53;;;1.20;;
43807;SDS011;29438;50.664;10.098;2023-11-19T05:29:08;3.00;;;1.40;;
43807;SDS011;29438;50.664;10.098;2023-11-19T05:31:34;3.05;;;1.48;;
43807;SDS011;29438;50.664;10.098;2023-11-19T05:33:59;3.25;;;1.20;;
43807;SDS011;29438;50.664;10.098;2023-11-19T05:36:25;2.45;;;1.20;;
43807;SDS011;29438;50.664;10.098;2023-11-19T05:38:50;3.33;;;1.40;;
43807;SDS011;29438;50.664;10.098;2023-11-19T05:41:16;2.42;;;1.23;;
43807;SDS011;29438;50.664;10.098;2023-11-19T05:43:42;2.70;;;1.20;;
43807;SDS011;29438;50.664;10.098;2023-11-19T05:46:07;3.47;;;1.05;;
43807;SDS011;29438;50.664;10.098;2023-11-19T05:48:33;2.33;;;1.17;;
43807;SDS011;29438;50.664;10.098;2023-11-19T05:50:59;3.50;;;1.40;;
43807;SDS011;29438;50.664;10.098;2023-11-19T05:53:25;3.22;;;1.05;;
43807;SDS011;29438;50.664;10.098;2023-11-19T05:55:50;3.90;;;1.60;;
43807;SDS011;29438;50.664;10.098;2023-11-19T05:58:25;3.80;;;1.33;;
43807;SDS011;29438;50.664;10.098;2023-11-19T06:00:53;4.63;;;1.63;;
43807;SDS011;29438;50.664;10.098;2023-11-19T06:03:19;5.18;;;1.88;;
43807;SDS011;29438;50.664;10.098;2023-11-19T06:05:46;4.10;;;1.63;;
43807;SDS011;29438;50.664;10.098;2023-11-19T06:08:12;5.18;;;1.83;;
43807;SDS011;29438;50.664;10.098;2023-11-19T06:10:38;3.55;;;1.38;;
43807;SDS011;29438;50.664;10.098;2023-11-19T06:13:05;3.50;;;1.65;;
43807;SDS011;29438;50.664;10.098;2023-11-19T06:15:31;3.55;;;1.73;;
43807;SDS011;29438;50.664;10.098;2023-11-19T06:17:58;4.90;;;1.88;;
43807;SDS011;29438;50.664;10.098;2023-11-19T06:20:26;3.13;;;1.67;;
43807;SDS011;29438;50.664;10.098;2023-11-19T06:22:54;4.75;;;1.60;;
43807;SDS011;29438;50.664;10.098;2023-11-19T06:25:19;6.28;;;2.50;;
43807;SDS011;29438;50.664;10.098;2023-11-19T06:27:45;3.65;;;1.73;;
43807;SDS011;29438;50.664;10.098;2023-11-19T06:30:10;4.50;;;1.75;;
43807;SDS011;29438;50.664;10.098;2023-11-19T06:32:37;4.68;;;1.90;;
43807;SDS011;29438;50.664;10.098;2023-11-19T06:35:02;3.95;;;1.70;;
43807;SDS011;29438;50.664;10.098;2023-11-19T06:37:29;3.90;;;1.60;;
43807;SDS011;29438;50.664;10.098;2023-11-19T06:39:55;3.33;;;1.70;;
43807;SDS011;29438;50.664;10.098;2023-11-19T06:42:21;5.20;;;1.90;;
43807;SDS011;29438;50.664;10.098;2023-11-19T06:44:46;4.53;;;1.60;;
43807;SDS011;29438;50.664;10.098;2023-11-19T06:47:12;2.67;;;1.20;;
43807;SDS011;29438;50.664;10.098;2023-11-19T06:49:37;3.10;;;1.38;;
43807;SDS011;29438;50.664;10.098;2023-11-19T06:52:03;3.15;;;0.93;;
43807;SDS011;29438;50.664;10.098;2023-11-19T06:54:29;3.35;;;1.30;;
43807;SDS011;29438;50.664;10.098;2023-11-19T06:56:55;3.03;;;1.30;;
43807;SDS011;29438;50.664;10.098;2023-11-19T06:59:22;2.30;;;1.00;;
43807;SDS011;29438;50.664;10.098;2023-11-19T07:01:48;2.63;;;1.23;;
43807;SDS011;29438;50.664;10.098;2023-11-19T07:04:13;2.83;;;1.27;;
43807;SDS011;29438;50.664;10.098;2023-11-19T07:06:39;4.18;;;2.20;;
43807;SDS011;29438;50.664;10.098;2023-11-19T07:09:08;4.00;;;2.00;;
43807;SDS011;29438;50.664;10.098;2023-11-19T07:11:40;3.30;;;1.70;;
43807;SDS011;29438;50.664;10.098;2023-11-19T07:14:07;3.85;;;1.60;;
43807;SDS011;29438;50.664;10.098;2023-11-19T07:16:33;5.65;;;1.70;;
43807;SDS011;29438;50.664;10.098;2023-11-19T07:19:02;4.93;;;1.58;;
43807;SDS011;29438;50.664;10.098;2023-11-19T07:21:31;3.88;;;1.55;;
43807;SDS011;29438;50.664;10.098;2023-11-19T07:23:58;5.32;;;2.05;;
43807;SDS011;29438;50.664;10.098;2023-11-19T07:26:24;5.95;;;1.88;;
43807;SDS011;29438;50.664;10.098;2023-11-19T07:28:49;4.57;;;1.63;;
43807;SDS011;29438;50.664;10.098;2023-11-19T07:31:15;6.70;;;1.98;;
43807;SDS011;29438;50.664;10.098;2023-11-19T07:33:43;4.03;;;1.75;;
43807;SDS011;29438;50.664;10.098;2023-11-19T07:36:09;4.93;;;1.77;;
43807;SDS011;29438;50.664;10.098;2023-11-19T07:38:35;4.55;;;1.63;;
43807;SDS011;29438;50.664;10.098;2023-11-19T07:41:01;6.57;;;1.60;;
43807;SDS011;29438;50.664;10.098;2023-11-19T07:43:26;5.65;;;1.50;;
43807;SDS011;29438;50.664;10.098;2023-11-19T07:45:52;6.40;;;1.35;;
43807;SDS011;29438;50.664;10.098;2023-11-19T07:48:18;3.47;;;1.30;;
43807;SDS011;29438;50.664;10.098;2023-11-19T07:50:49;5.40;;;1.30;;
43807;SDS011;29438;50.664;10.098;2023-11-19T07:53:17;4.32;;;1.15;;
43807;SDS011;29438;50.664;10.098;2023-11-19T07:55:43;3.58;;;0.85;;
43807;SDS011;29438;50.664;10.098;2023-11-19T07:58:09;6.20;;;1.00;;
43807;SDS011;29438;50.664;10.098;2023-11-19T08:00:36;3.00;;;0.60;;
43807;SDS011;29438;50.664;10.098;2023-11-19T08:03:02;4.07;;;0.52;;
43807;SDS011;29438;50.664;10.098;2023-11-19T08:05:28;4.55;;;0.70;;
43807;SDS011;29438;50.664;10.098;2023-11-19T08:07:53;4.22;;;0.50;;
43807;SDS011;29438;50.664;10.098;2023-11-19T08:10:19;2.83;;;0.60;;
43807;SDS011;29438;50.664;10.098;2023-11-19T08:12:45;3.65;;;0.38;;
43807;SDS011;29438;50.664;10.098;2023-11-19T08:15:10;3.47;;;0.20;;
43807;SDS011;29438;50.664;10.098;2023-11-19T08:17:36;4.18;;;0.40;;
43807;SDS011;29438;50.664;10.098;2023-11-19T08:20:02;2.75;;;0.30;;
43807;SDS011;29438;50.664;10.098;2023-11-19T08:22:30;3.08;;;0.35;;
43807;SDS011;29438;50.664;10.098;2023-11-19T08:24:56;3.22;;;0.30;;
43807;SDS011;29438;50.664;10.098;2023-11-19T08:27:21;6.55;;;0.47;;
43807;SDS011;29438;50.664;10.098;2023-11-19T08:29:52;4.35;;;0.28;;
43807;SDS011;29438;50.664;10.098;2023-11-19T08:32:20;2.53;;;0.30;;
43807;SDS011;29438;50.664;10.098;2023-11-19T08:34:46;1.85;;;0.30;;
43807;SDS011;29438;50.664;10.098;2023-11-19T08:37:11;3.47;;;0.30;;
43807;SDS011;29438;50.664;10.098;2023-11-19T08:39:38;4.18;;;0.40;;
43807;SDS011;29438;50.664;10.098;2023-11-19T08:42:03;5.75;;;0.50;;
43807;SDS011;29438;50.664;10.098;2023-11-19T08:44:29;4.00;;;0.30;;
43807;SDS011;29438;50.664;10.098;2023-11-19T08:46:55;2.83;;;1.10;;
43807;SDS011;29438;50.664;10.098;2023-11-19T08:49:20;3.88;;;0.73;;
43807;SDS011;29438;50.664;10.098;2023-11-19T08:51:46;4.80;;;0.90;;
43807;SDS011;29438;50.664;10.098;2023-11-19T08:54:11;3.25;;;0.50;;
43807;SDS011;29438;50.664;10.098;2023-11-19T08:56:38;3.63;;;1.00;;
43807;SDS011;29438;50.664;10.098;2023-11-19T08:59:04;4.60;;;0.60;;
43807;SDS011;29438;50.664;10.098;2023-11-19T09:01:30;4.40;;;0.88;;
43807;SDS011;29438;50.664;10.098;2023-11-19T09:03:55;3.55;;;0.90;;
43807;SDS011;29438;50.664;10.098;2023-11-19T09:06:21;4.43;;;0.60;;
43807;SDS011;29438;50.664;10.098;2023-11-19T09:08:46;3.38;;;0.55;;
43807;SDS011;29438;50.664;10.098;2023-11-19T09:11:12;4.28;;;0.90;;
43807;SDS011;29438;50.664;10.098;2023-11-19T09:13:37;3.35;;;0.70;;
43807;SDS011;29438;50.664;10.098;2023-11-19T09:16:03;4.03;;;0.60;;
43807;SDS011;29438;50.664;10.098;2023-11-19T09:18:29;3.38;;;0.70;;
43807;SDS011;29438;50.664;10.098;2023-11-19T09:20:55;2.63;;;0.73;;
43807;SDS011;29438;50.664;10.098;2023-11-19T09:23:21;1.88;;;0.60;;
43807;SDS011;29438;50.664;10.098;2023-11-19T09:25:46;3.22;;;0.50;;
43807;SDS011;29438;50.664;10.098;2023-11-19T09:28:12;2.97;;;0.60;;
43807;SDS011;29438;50.664;10.098;2023-11-19T09:30:39;4.45;;;0.77;;
43807;SDS011;29438;50.664;10.098;2023-11-19T09:33:04;4.13;;;0.60;;
43807;SDS011;29438;50.664;10.098;2023-11-19T09:35:30;3.58;;;0.60;;
43807;SDS011;29438;50.664;10.098;2023-11-19T09:37:56;3.75;;;0.60;;
43807;SDS011;29438;50.664;10.098;2023-11-19T09:40:21;2.75;;;0.43;;
43807;SDS011;29438;50.664;10.098;2023-11-19T09:42:47;5.70;;;0.63;;
43807;SDS011;29438;50.664;10.098;2023-11-19T09:45:13;3.78;;;0.50;;
43807;SDS011;29438;50.664;10.098;2023-11-19T09:47:42;4.07;;;0.57;;
43807;SDS011;29438;50.664;10.098;2023-11-19T09:50:09;3.65;;;0.50;;
43807;SDS011;29438;50.664;10.098;2023-11-19T09:52:37;7.65;;;0.90;;
43807;SDS011;29438;50.664;10.098;2023-11-19T09:55:03;5.40;;;0.63;;
43807;SDS011;29438;50.664;10.098;2023-11-19T09:57:29;2.92;;;0.45;;
43807;SDS011;29438;50.664;10.098;2023-11-19T09:59:57;6.82;;;0.90;;
43807;SDS011;29438;50.664;10.098;2023-11-19T10:02:23;6.50;;;0.95;;
43807;SDS011;29438;50.664;10.098;2023-11-19T10:04:51;4.70;;;1.00;;
43807;SDS011;29438;50.664;10.098;2023-11-19T10:07:18;4.55;;;1.23;;
43807;SDS011;29438;50.664;10.098;2023-11-19T10:09:43;8.30;;;1.45;;
43807;SDS011;29438;50.664;10.098;2023-11-19T10:12:09;6.72;;;1.17;;
43807;SDS011;29438;50.664;10.098;2023-11-19T10:14:35;7.00;;;1.00;;
43807;SDS011;29438;50.664;10.098;2023-11-19T10:17:04;6.40;;;1.52;;
43807;SDS011;29438;50.664;10.098;2023-11-19T10:19:32;4.72;;;1.00;;
43807;SDS011;29438;50.664;10.098;2023-11-19T10:22:01;10.60;;;2.58;;
43807;SDS011;29438;50.664;10.098;2023-11-19T10:24:33;7.18;;;1.33;;
43807;SDS011;29438;50.664;10.098;2023-11-19T10:26:59;7.22;;;1.08;;
43807;SDS011;29438;50.664;10.098;2023-11-19T10:29:27;16.05;;;2.92;;
43807;SDS011;29438;50.664;10.098;2023-11-19T10:31:58;12.48;;;1.65;;
43807;SDS011;29438;50.664;10.098;2023-11-19T10:34:27;7.53;;;1.52;;
43807;SDS011;29438;50.664;10.098;2023-11-19T10:36:53;7.80;;;1.60;;
43807;SDS011;29438;50.664;10.098;2023-11-19T10:39:18;7.72;;;1.55;;
43807;SDS011;29438;50.664;10.098;2023-11-19T10:41:46;7.15;;;1.85;;
43807;SDS011;29438;50.664;10.098;2023-11-19T10:44:11;6.03;;;1.20;;
43807;SDS011;29438;50.664;10.098;2023-11-19T10:46:40;4.30;;;0.65;;
43807;SDS011;29438;50.664;10.098;2023-11-19T10:49:07;4.20;;;0.80;;
43807;SDS011;29438;50.664;10.098;2023-11-19T10:51:33;3.42;;;0.77;;
43807;SDS011;29438;50.664;10.098;2023-11-19T10:54:02;6.32;;;1.00;;
43807;SDS011;29438;50.664;10.098;2023-11-19T10:56:33;5.38;;;0.75;;
43807;SDS011;29438;50.664;10.098;2023-11-19T10:58:59;6.28;;;1.00;;
43807;SDS011;29438;50.664;10.098;2023-11-19T11:01:26;2.97;;;0.60;;
43807;SDS011;29438;50.664;10.098;2023-11-19T11:03:58;9.05;;;2.05;;
43807;SDS011;29438;50.664;10.098;2023-11-19T11:06:25;7.00;;;1.20;;
43807;SDS011;29438;50.664;10.098;2023-11-19T11:08:52;8.00;;;1.52;;
43807;SDS011;29438;50.664;10.098;2023-11-19T11:11:19;5.60;;;0.65;;
43807;SDS011;29438;50.664;10.098;2023-11-19T11:13:49;5.68;;;1.10;;
43807;SDS011;29438;50.664;10.098;2023-11-19T11:16:18;6.20;;;1.15;;
43807;SDS011;29438;50.664;10.098;2023-11-19T11:18:47;6.53;;;1.23;;
43807;SDS011;29438;50.664;10.098;2023-11-19T11:21:15;8.27;;;1.20;;
43807;SDS011;29438;50.664;10.098;2023-11-19T11:38:07;8.43;;;1.55;;
43807;SDS011;29438;50.664;10.098;2023-11-19T11:40:34;10.15;;;1.85;;
43807;SDS011;29438;50.664;10.098;2023-11-19T11:43:01;7.55;;;2.10;;
43807;SDS011;29438;50.664;10.098;2023-11-19T11:45:36;11.00;;;2.40;;
43807;SDS011;29438;50.664;10.098;2023-11-19T11:48:11;6.93;;;1.25;;
43807;SDS011;29438;50.664;10.098;2023-11-19T11:50:52;8.63;;;1.52;;
43807;SDS011;29438;50.664;10.098;2023-11-19T11:53:20;7.50;;;1.00;;
43807;SDS011;29438;50.664;10.098;2023-11-19T11:58:15;8.05;;;1.65;;
43807;SDS011;29438;50.664;10.098;2023-11-19T12:00:43;11.02;;;1.40;;
43807;SDS011;29438;50.664;10.098;2023-11-19T12:03:10;7.00;;;1.90;;
43807;SDS011;29438;50.664;10.098;2023-11-19T12:05:46;9.32;;;2.30;;
43807;SDS011;29438;50.664;10.098;2023-11-19T12:08:13;12.60;;;2.75;;
43807;SDS011;29438;50.664;10.098;2023-11-19T12:10:47;10.68;;;2.50;;
43807;SDS011;29438;50.664;10.098;2023-11-19T12:13:17;9.20;;;1.92;;
43807;SDS011;29438;50.664;10.098;2023-11-19T12:16:07;8.90;;;1.55;;
43807;SDS011;29438;50.664;10.098;2023-11-19T12:18:32;10.63;;;1.73;;
43807;SDS011;29438;50.664;10.098;2023-11-19T12:20:59;10.13;;;1.27;;
43807;SDS011;29438;50.664;10.098;2023-11-19T12:23:28;6.80;;;1.15;;
43807;SDS011;29438;50.664;10.098;2023-11-19T12:25:55;11.73;;;1.13;;
43807;SDS011;29438;50.664;10.098;2023-11-19T12:28:21;5.28;;;1.02;;
43807;SDS011;29438;50.664;10.098;2023-11-19T12:30:47;7.93;;;0.95;;
43807;SDS011;29438;50.664;10.098;2023-11-19T12:33:13;7.13;;;0.70;;
43807;SDS011;29438;50.664;10.098;2023-11-19T12:35:43;9.07;;;1.00;;
43807;SDS011;29438;50.664;10.098;2023-11-19T12:38:24;8.93;;;0.90;;
43807;SDS011;29438;50.664;10.098;2023-11-19T12:41:03;6.63;;;0.90;;
43807;SDS011;29438;50.664;10.098;2023-11-19T12:43:29;8.00;;;0.90;;
43807;SDS011;29438;50.664;10.098;2023-11-19T12:45:54;7.10;;;0.95;;
43807;SDS011;29438;50.664;10.098;2023-11-19T12:48:20;11.20;;;1.10;;
43807;SDS011;29438;50.664;10.098;2023-11-19T12:50:55;6.47;;;0.82;;
43807;SDS011;29438;50.664;10.098;2023-11-19T12:53:22;7.18;;;1.00;;
43807;SDS011;29438;50.664;10.098;2023-11-19T12:55:50;8.93;;;0.85;;
43807;SDS011;29438;50.664;10.098;2023-11-19T12:58:33;10.30;;;1.40;;
43807;SDS011;29438;50.664;10.098;2023-11-19T13:01:01;5.18;;;0.70;;
43807;SDS011;29438;50.664;10.098;2023-11-19T13:03:32;5.97;;;0.75;;
43807;SDS011;29438;50.664;10.098;2023-11-19T13:06:08;7.28;;;0.93;;
43807;SDS011;29438;50.664;10.098;2023-11-19T13:08:45;4.40;;;0.68;;
43807;SDS011;29438;50.664;10.098;2023-11-19T13:11:13;8.82;;;1.00;;
43807;SDS011;29438;50.664;10.098;2023-11-19T13:13:55;8.75;;;0.98;;
43807;SDS011;29438;50.664;10.098;2023-11-19T13:16:23;9.55;;;0.90;;
43807;SDS011;29438;50.664;10.098;2023-11-19T13:18:49;7.30;;;0.88;;
43807;SDS011;29438;50.664;10.098;2023-11-19T13:21:14;10.48;;;0.98;;
43807;SDS011;29438;50.664;10.098;2023-11-19T13:23:40;10.25;;;1.10;;
43807;SDS011;29438;50.664;10.098;2023-11-19T13:26:06;7.30;;;0.82;;
43807;SDS011;29438;50.664;10.098;2023-11-19T13:28:32;8.32;;;0.70;;
43807;SDS011;29438;50.664;10.098;2023-11-19T13:30:58;10.82;;;1.75;;
43807;SDS011;29438;50.664;10.098;2023-11-19T13:33:23;9.57;;;1.10;;
43807;SDS011;29438;50.664;10.098;2023-11-19T13:35:49;7.47;;;1.05;;
43807;SDS011;29438;50.664;10.098;2023-11-19T13:38:14;6.30;;;1.02;;
43807;SDS011;29438;50.664;10.098;2023-11-19T13:40:40;7.82;;;0.80;;
43807;SDS011;29438;50.664;10.098;2023-11-19T13:43:05;9.07;;;1.17;;
43807;SDS011;29438;50.664;10.098;2023-11-19T13:45:32;7.90;;;0.60;;
43807;SDS011;29438;50.664;10.098;2023-11-19T13:47:57;7.57;;;0.80;;
43807;SDS011;29438;50.664;10.098;2023-11-19T13:50:23;10.65;;;1.20;;
43807;SDS011;29438;50.664;10.098;2023-11-19T13:52:49;6.22;;;0.85;;
43807;SDS011;29438;50.664;10.098;2023-11-19T13:55:14;9.20;;;1.35;;
43807;SDS011;29438;50.664;10.098;2023-11-19T13:57:40;11.77;;;1.23;;
43807;SDS011;29438;50.664;10.098;2023-11-19T14:00:07;7.45;;;0.73;;
43807;SDS011;29438;50.664;10.098;2023-11-19T14:02:38;8.95;;;1.00;;
43807;SDS011;29438;50.664;10.098;2023-11-19T14:05:10;7.07;;;1.25;;
43807;SDS011;29438;50.664;10.098;2023-11-19T14:07:36;8.07;;;0.98;;
43807;SDS011;29438;50.664;10.098;2023-11-19T14:10:02;8.60;;;1.17;;
43807;SDS011;29438;50.664;10.098;2023-11-19T14:12:30;6.72;;;0.80;;
43807;SDS011;29438;50.664;10.098;2023-11-19T14:14:55;7.72;;;1.15;;
43807;SDS011;29438;50.664;10.098;2023-11-19T14:17:21;7.00;;;0.88;;
43807;SDS011;29438;50.664;10.098;2023-11-19T14:19:46;8.30;;;1.33;;
43807;SDS011;29438;50.664;10.098;2023-11-19T14:22:12;5.32;;;0.88;;
43807;SDS011;29438;50.664;10.098;2023-11-19T14:24:38;7.13;;;0.88;;
43807;SDS011;29438;50.664;10.098;2023-11-19T14:27:05;9.75;;;1.42;;
43807;SDS011;29438;50.664;10.098;2023-11-19T14:29:31;9.88;;;1.30;;
43807;SDS011;29438;50.664;10.098;2023-11-19T14:31:56;5.55;;;1.33;;
43807;SDS011;29438;50.664;10.098;2023-11-19T14:34:23;8.80;;;1.45;;
43807;SDS011;29438;50.664;10.098;2023-11-19T14:36:49;5.63;;;1.13;;
43807;SDS011;29438;50.664;10.098;2023-11-19T14:39:15;8.25;;;1.10;;
43807;SDS011;29438;50.664;10.098;2023-11-19T14:41:42;8.48;;;0.90;;
43807;SDS011;29438;50.664;10.098;2023-11-19T14:44:08;10.75;;;1.00;;
43807;SDS011;29438;50.664;10.098;2023-11-19T14:46:34;4.60;;;0.80;;
43807;SDS011;29438;50.664;10.098;2023-11-19T14:49:00;9.20;;;1.05;;